createdAt,value
2023-01-25T00:01:57.314Z,14.45
2023-01-25T00:04:31.153Z,7.25
2023-01-25T00:07:04.472Z,8.70
2023-01-25T00:09:37.806Z,7.88
2023-01-25T00:14:44.888Z,8.70
2023-01-25T00:17:20.007Z,8.35
2023-01-25T00:19:53.839Z,8.55
2023-01-25T00:22:27.414Z,9.55
2023-01-25T00:25:00.540Z,10.48
2023-01-25T00:27:33.919Z,5.90
2023-01-25T00:30:08.124Z,7.97
2023-01-25T00:32:59.011Z,7.45
2023-01-25T00:35:33.525Z,10.40
2023-01-25T00:38:26.081Z,12.00
2023-01-25T00:40:59.858Z,11.82
2023-01-25T00:43:34.097Z,6.13
2023-01-25T00:46:07.198Z,8.05
2023-01-25T00:48:41.911Z,6.30
2023-01-25T00:51:15.714Z,6.60
2023-01-25T00:53:49.295Z,7.53
2023-01-25T00:56:22.791Z,7.60
2023-01-25T00:58:56.278Z,7.80
2023-01-25T01:01:29.732Z,9.05
2023-01-25T01:04:05.800Z,10.93
2023-01-25T01:06:40.489Z,8.63
2023-01-25T01:09:16.742Z,10.77
2023-01-25T01:11:50.730Z,6.93
2023-01-25T01:14:25.217Z,12.77
2023-01-25T01:16:58.970Z,10.52
2023-01-25T01:19:33.784Z,5.78
2023-01-25T01:22:07.502Z,7.55
2023-01-25T01:24:41.771Z,8.50
2023-01-25T01:27:15.102Z,14.68
2023-01-25T01:29:48.233Z,8.60
2023-01-25T01:32:21.713Z,6.93
2023-01-25T01:34:56.348Z,10.52
2023-01-25T01:37:29.815Z,10.48
2023-01-25T01:40:03.356Z,7.55
2023-01-25T01:42:57.432Z,6.00
2023-01-25T01:45:50.716Z,6.60
2023-01-25T01:48:33.992Z,8.57
2023-01-25T01:51:14.651Z,10.75
2023-01-25T01:53:51.236Z,7.55
2023-01-25T01:56:31.428Z,9.70
2023-01-25T01:59:07.778Z,8.93
2023-01-25T02:01:42.746Z,6.38
2023-01-25T02:04:19.985Z,5.55
2023-01-25T02:07:00.401Z,5.55
2023-01-25T02:09:37.153Z,6.20
2023-01-25T02:12:14.074Z,6.28
2023-01-25T02:14:50.565Z,5.50
2023-01-25T02:17:27.998Z,10.57
2023-01-25T02:20:08.416Z,6.30
2023-01-25T02:22:48.602Z,3.80
2023-01-25T02:25:23.476Z,4.90
2023-01-25T02:28:02.339Z,6.85
2023-01-25T02:30:35.655Z,5.70
2023-01-25T02:33:09.003Z,7.28
2023-01-25T02:35:45.632Z,6.40
2023-01-25T02:38:21.355Z,6.97
2023-01-25T02:41:00.309Z,11.05
2023-01-25T02:43:35.423Z,7.68
2023-01-25T02:46:14.402Z,11.25
2023-01-25T02:48:47.635Z,8.23
2023-01-25T02:51:21.663Z,10.10
2023-01-25T02:53:56.021Z,6.95
2023-01-25T02:56:31.386Z,7.35
2023-01-25T02:59:05.817Z,11.65
2023-01-25T03:01:40.750Z,7.40
2023-01-25T03:04:14.460Z,10.43
2023-01-25T03:06:48.077Z,7.93
2023-01-25T03:09:21.519Z,7.85
2023-01-25T03:11:57.371Z,7.20
2023-01-25T03:14:31.103Z,10.27
2023-01-25T03:19:37.908Z,8.85
2023-01-25T03:24:45.311Z,9.63
2023-01-25T03:27:19.879Z,10.18
2023-01-25T03:29:53.053Z,8.27
2023-01-25T03:32:26.429Z,9.85
2023-01-25T03:34:59.912Z,10.77
2023-01-25T03:37:34.197Z,12.93
2023-01-25T03:40:09.214Z,11.93
2023-01-25T03:42:44.051Z,13.50
2023-01-25T03:45:17.506Z,12.32
2023-01-25T03:47:50.852Z,12.13
2023-01-25T03:50:24.364Z,8.82
2023-01-25T03:53:14.793Z,10.38
2023-01-25T03:55:49.727Z,10.63
2023-01-25T03:58:25.147Z,14.55
2023-01-25T04:01:00.241Z,11.52
2023-01-25T04:03:34.509Z,11.52
2023-01-25T04:06:08.648Z,15.10
2023-01-25T04:11:14.979Z,11.57
2023-01-25T04:16:23.676Z,22.05
2023-01-25T04:21:31.130Z,13.38
2023-01-25T04:24:04.981Z,8.88
2023-01-25T04:26:38.508Z,16.17
2023-01-25T04:29:13.389Z,15.10
2023-01-25T04:31:46.721Z,12.48
2023-01-25T04:34:20.053Z,11.57
2023-01-25T04:36:53.705Z,15.35
2023-01-25T04:39:27.236Z,14.98
2023-01-25T04:42:00.764Z,10.55
2023-01-25T04:44:35.611Z,9.10
2023-01-25T04:47:08.813Z,13.95
2023-01-25T04:49:42.195Z,14.23
2023-01-25T04:52:15.558Z,13.82
2023-01-25T04:54:49.200Z,15.35
2023-01-25T04:57:22.745Z,14.30
2023-01-25T04:59:57.393Z,14.70
2023-01-25T05:02:30.810Z,17.20
2023-01-25T05:05:04.602Z,13.13
2023-01-25T05:10:12.450Z,13.25
2023-01-25T05:12:46.549Z,15.48
2023-01-25T05:15:21.744Z,11.20
2023-01-25T05:17:55.185Z,16.88
2023-01-25T05:20:28.477Z,14.05
2023-01-25T05:23:01.924Z,14.15
2023-01-25T05:25:52.923Z,15.52
2023-01-25T05:28:26.535Z,16.20
2023-01-25T05:31:04.265Z,17.17
2023-01-25T05:33:37.817Z,14.93
2023-01-25T05:36:11.241Z,14.32
2023-01-25T05:38:44.581Z,15.15
2023-01-25T05:41:17.801Z,15.35
2023-01-25T05:43:51.016Z,14.30
2023-01-25T05:46:26.020Z,13.25
2023-01-25T05:48:59.795Z,13.43
2023-01-25T05:51:33.571Z,18.02
2023-01-25T05:54:07.214Z,18.30
2023-01-25T05:56:40.673Z,16.48
2023-01-25T05:59:14.210Z,15.07
2023-01-25T06:01:49.095Z,15.52
2023-01-25T06:04:22.873Z,18.17
2023-01-25T06:06:56.351Z,15.07
2023-01-25T06:09:29.658Z,12.75
2023-01-25T06:12:03.895Z,19.48
2023-01-25T06:14:37.337Z,19.95
2023-01-25T06:17:12.327Z,21.63
2023-01-25T06:19:46.122Z,18.23
2023-01-25T06:22:19.959Z,13.93
2023-01-25T06:24:53.193Z,18.85
2023-01-25T06:27:26.418Z,17.67
2023-01-25T06:29:59.940Z,14.13
2023-01-25T06:32:35.097Z,18.05
2023-01-25T06:35:09.376Z,19.52
2023-01-25T06:37:43.324Z,32.70
2023-01-25T06:40:17.271Z,27.05
2023-01-25T06:42:50.477Z,26.17
2023-01-25T06:45:23.848Z,24.45
2023-01-25T06:47:58.569Z,18.35
2023-01-25T06:50:31.947Z,14.48
2023-01-25T06:53:05.510Z,23.48
2023-01-25T06:55:38.962Z,17.15
2023-01-25T06:58:13.691Z,19.20
2023-01-25T07:00:47.123Z,17.15
2023-01-25T07:03:21.803Z,11.85
2023-01-25T07:05:59.257Z,18.35
2023-01-25T07:08:33.486Z,28.40
2023-01-25T07:11:09.619Z,12.50
2023-01-25T07:13:45.600Z,33.83
2023-01-25T07:16:20.553Z,18.42
2023-01-25T07:18:55.565Z,13.77
2023-01-25T07:21:29.510Z,10.65
2023-01-25T07:24:03.888Z,10.13
2023-01-25T07:26:37.156Z,10.85
2023-01-25T07:29:14.362Z,11.52
2023-01-25T07:31:48.117Z,14.32
2023-01-25T07:34:23.243Z,10.70
2023-01-25T07:36:56.979Z,8.30
2023-01-25T07:39:30.256Z,14.10
2023-01-25T07:42:03.782Z,13.95
2023-01-25T07:44:37.341Z,11.80
2023-01-25T07:47:10.944Z,9.85
2023-01-25T07:49:45.843Z,9.77
2023-01-25T07:52:19.479Z,9.05
2023-01-25T07:54:52.909Z,11.07
2023-01-25T07:57:28.450Z,12.95
2023-01-25T08:00:01.956Z,14.05
2023-01-25T08:02:35.398Z,8.38
2023-01-25T08:05:11.772Z,10.23
2023-01-25T08:07:45.375Z,12.70
2023-01-25T08:10:18.552Z,11.32
2023-01-25T08:15:25.778Z,10.68
2023-01-25T08:18:00.797Z,12.65
2023-01-25T08:20:35.707Z,16.35
2023-01-25T08:23:09.562Z,13.27
2023-01-25T08:25:42.925Z,17.80
2023-01-25T08:28:16.112Z,17.98
2023-01-25T08:30:57.194Z,15.32
2023-01-25T08:33:31.759Z,13.48
2023-01-25T08:36:08.928Z,12.13
2023-01-25T08:38:42.629Z,9.27
2023-01-25T08:41:17.710Z,25.55
2023-01-25T08:43:53.695Z,15.13
2023-01-25T08:46:31.369Z,50.88
2023-01-25T08:49:05.870Z,29.63
2023-01-25T08:51:40.898Z,21.77
2023-01-25T08:54:14.258Z,12.90
2023-01-25T08:56:47.448Z,7.60
2023-01-25T08:59:20.809Z,10.30
2023-01-25T09:01:54.288Z,16.15
2023-01-25T09:04:28.599Z,9.65
2023-01-25T09:07:03.475Z,11.68
2023-01-25T09:09:36.699Z,11.77
2023-01-25T09:12:11.426Z,14.68
2023-01-25T09:14:45.457Z,12.10
2023-01-25T09:17:19.393Z,8.77
2023-01-25T09:22:27.583Z,8.75
2023-01-25T09:25:01.921Z,9.00
2023-01-25T09:27:35.061Z,7.63
2023-01-25T09:30:18.149Z,9.20
2023-01-25T09:32:52.487Z,10.10
2023-01-25T09:38:04.687Z,6.95
2023-01-25T09:40:45.917Z,12.07
2023-01-25T09:43:32.422Z,6.88
2023-01-25T09:46:18.790Z,7.57
2023-01-25T09:49:07.616Z,10.88
2023-01-25T09:51:58.865Z,8.18
2023-01-25T09:54:46.458Z,12.35
2023-01-25T09:57:25.291Z,13.18
2023-01-25T10:00:04.090Z,14.40
2023-01-25T10:02:44.496Z,11.38
2023-01-25T10:05:22.954Z,7.80
2023-01-25T10:08:01.754Z,11.90
2023-01-25T10:10:39.443Z,12.18
2023-01-25T10:13:16.822Z,7.88
2023-01-25T10:15:54.244Z,9.43
2023-01-25T10:18:34.786Z,10.93
2023-01-25T10:21:14.551Z,10.50
2023-01-25T10:24:11.651Z,9.63
2023-01-25T10:26:52.649Z,8.75
2023-01-25T10:29:29.233Z,9.32
2023-01-25T10:32:19.640Z,10.35
2023-01-25T10:34:57.273Z,17.85
2023-01-25T10:37:35.767Z,16.27
2023-01-25T10:40:17.912Z,10.75
2023-01-25T10:42:58.018Z,6.15
2023-01-25T10:45:32.058Z,11.05
2023-01-25T10:48:10.385Z,11.25
2023-01-25T10:50:49.057Z,10.20
2023-01-25T10:53:31.146Z,7.90
2023-01-25T10:56:17.132Z,8.38
2023-01-25T10:58:54.489Z,10.65
2023-01-25T11:01:31.303Z,6.70
2023-01-25T11:04:24.248Z,10.35
2023-01-25T11:06:57.604Z,11.10
2023-01-25T11:09:36.864Z,10.35
2023-01-25T11:12:19.680Z,10.88
2023-01-25T11:14:55.087Z,11.70
2023-01-25T11:17:31.901Z,12.13
2023-01-25T11:20:15.884Z,17.65
2023-01-25T11:22:53.799Z,13.10
2023-01-25T11:25:30.925Z,6.15
2023-01-25T11:28:18.993Z,14.25
2023-01-25T11:30:54.760Z,12.63
2023-01-25T11:33:28.399Z,14.52
2023-01-25T11:36:19.953Z,11.13
2023-01-25T11:39:04.325Z,10.90
2023-01-25T11:41:52.081Z,14.55
2023-01-25T11:45:09.787Z,13.90
2023-01-25T11:47:59.782Z,18.80
2023-01-25T11:50:38.995Z,22.42
2023-01-25T11:53:34.766Z,21.05
2023-01-25T11:56:16.547Z,14.07
2023-01-25T11:59:08.439Z,21.30
2023-01-25T12:01:59.224Z,14.45
2023-01-25T12:05:09.664Z,6.65
2023-01-25T12:08:06.845Z,11.63
2023-01-25T12:10:51.643Z,15.82
2023-01-25T12:13:34.401Z,13.07
2023-01-25T12:16:30.959Z,15.30
2023-01-25T12:19:30.244Z,16.17
2023-01-25T12:22:21.224Z,12.02
2023-01-25T12:25:02.418Z,11.25
2023-01-25T12:27:51.303Z,15.05
2023-01-25T12:30:32.680Z,12.73
2023-01-25T12:33:14.821Z,9.90
2023-01-25T12:35:57.030Z,10.60
2023-01-25T12:38:39.296Z,7.05
2023-01-25T12:41:24.147Z,7.72
2023-01-25T12:44:04.599Z,10.25
2023-01-25T12:46:43.650Z,14.38
2023-01-25T12:49:25.647Z,12.20
2023-01-25T12:52:05.064Z,16.35
2023-01-25T12:54:43.990Z,11.85
2023-01-25T12:57:23.737Z,24.48
2023-01-25T13:00:07.554Z,22.00
2023-01-25T13:02:57.555Z,21.95
2023-01-25T13:05:37.662Z,12.82
2023-01-25T13:08:31.123Z,14.48
2023-01-25T13:11:17.679Z,10.05
2023-01-25T13:13:51.819Z,15.95
2023-01-25T13:16:36.364Z,12.40
2023-01-25T13:19:21.169Z,9.20
2023-01-25T13:21:56.685Z,9.45
2023-01-25T13:24:31.120Z,11.90
2023-01-25T13:27:26.101Z,10.38
2023-01-25T13:30:01.556Z,22.80
2023-01-25T13:33:07.307Z,21.90
2023-01-25T13:35:45.095Z,20.30
2023-01-25T13:38:30.966Z,17.15
2023-01-25T13:41:10.826Z,17.25
2023-01-25T13:43:55.765Z,17.33
2023-01-25T13:46:29.136Z,16.92
2023-01-25T13:49:08.220Z,25.27
2023-01-25T13:51:43.511Z,33.95
2023-01-25T13:54:18.178Z,19.50
2023-01-25T13:57:05.532Z,11.93
2023-01-25T13:59:40.824Z,11.48
2023-01-25T14:02:19.939Z,11.95
2023-01-25T14:04:54.152Z,13.23
2023-01-25T14:07:33.181Z,16.02
2023-01-25T14:10:11.660Z,15.43
2023-01-25T14:12:47.691Z,15.85
2023-01-25T14:15:25.088Z,18.50
2023-01-25T14:18:20.246Z,24.92
2023-01-25T14:20:53.738Z,27.08
2023-01-25T14:26:02.144Z,21.65
2023-01-25T14:28:35.869Z,22.73
2023-01-25T14:31:22.918Z,21.30
2023-01-25T14:33:58.988Z,27.23
2023-01-25T14:36:35.331Z,21.67
2023-01-25T14:39:21.657Z,23.58
2023-01-25T14:42:01.488Z,25.90
2023-01-25T14:44:36.265Z,15.50
2023-01-25T14:47:31.363Z,18.73
2023-01-25T14:50:33.324Z,22.20
2023-01-25T14:53:13.694Z,13.20
2023-01-25T14:55:48.186Z,10.50
2023-01-25T14:58:25.029Z,8.75
2023-01-25T15:01:01.815Z,11.93
2023-01-25T15:03:44.751Z,15.05
2023-01-25T15:06:18.381Z,18.40
2023-01-25T15:08:51.945Z,11.35
2023-01-25T15:11:49.891Z,12.15
2023-01-25T15:14:23.757Z,9.10
2023-01-25T15:19:34.669Z,18.90
2023-01-25T15:22:09.797Z,32.55
2023-01-25T15:24:50.256Z,25.75
2023-01-25T15:27:28.051Z,27.38
2023-01-25T15:30:02.608Z,21.55
2023-01-25T15:32:36.002Z,15.98
2023-01-25T15:35:15.405Z,19.20
2023-01-25T15:37:49.708Z,14.15
2023-01-25T15:40:23.031Z,15.60
2023-01-25T15:42:56.403Z,14.93
2023-01-25T15:45:30.046Z,10.55
2023-01-25T15:48:03.320Z,7.70
2023-01-25T15:50:38.144Z,15.05
2023-01-25T15:53:16.077Z,12.40
2023-01-25T15:55:53.526Z,10.50
2023-01-25T15:58:30.414Z,8.82
2023-01-25T16:01:04.544Z,14.60
2023-01-25T16:03:41.504Z,15.98
2023-01-25T16:06:38.725Z,13.50
2023-01-25T16:09:18.677Z,22.80
2023-01-25T16:11:54.761Z,41.15
2023-01-25T16:14:31.464Z,37.40
2023-01-25T16:17:06.112Z,49.85
2023-01-25T16:19:39.792Z,47.70
2023-01-25T16:22:14.920Z,38.45
2023-01-25T16:24:48.341Z,46.70
2023-01-25T16:27:25.749Z,56.13
2023-01-25T16:29:59.142Z,49.47
2023-01-25T16:35:06.792Z,55.50
2023-01-25T16:37:41.625Z,34.80
2023-01-25T16:40:23.644Z,37.15
2023-01-25T16:42:57.380Z,29.80
2023-01-25T16:45:32.030Z,28.52
2023-01-25T16:48:05.707Z,26.92
2023-01-25T16:50:38.873Z,27.23
2023-01-25T16:53:13.783Z,29.35
2023-01-25T16:55:48.263Z,26.45
2023-01-25T16:58:21.560Z,28.80
2023-01-25T17:00:55.117Z,30.25
2023-01-25T17:06:02.973Z,26.70
2023-01-25T17:08:37.608Z,25.35
2023-01-25T17:11:10.794Z,26.20
2023-01-25T17:16:18.403Z,27.08
2023-01-25T17:18:55.251Z,21.17
2023-01-25T17:21:29.612Z,20.55
2023-01-25T17:24:04.438Z,19.48
2023-01-25T17:26:37.705Z,22.73
2023-01-25T17:29:12.142Z,18.60
2023-01-25T17:31:45.691Z,22.60
2023-01-25T17:34:20.236Z,25.17
2023-01-25T17:36:54.060Z,25.42
2023-01-25T17:42:01.878Z,25.90
2023-01-25T17:44:35.134Z,25.02
2023-01-25T17:47:09.149Z,24.98
2023-01-25T17:49:43.038Z,27.52
2023-01-25T17:52:16.365Z,25.30
2023-01-25T17:54:51.185Z,18.52
2023-01-25T17:57:26.396Z,18.83
2023-01-25T17:59:59.668Z,21.05
2023-01-25T18:02:33.045Z,20.83
2023-01-25T18:05:08.016Z,16.55
2023-01-25T18:07:41.495Z,15.50
2023-01-25T18:10:17.030Z,21.52
2023-01-25T18:13:04.042Z,22.52
2023-01-25T18:15:38.060Z,17.75
2023-01-25T18:18:11.358Z,19.40
2023-01-25T18:20:44.592Z,25.92
2023-01-25T18:23:17.608Z,19.17
2023-01-25T18:25:52.361Z,18.25
2023-01-25T18:28:26.833Z,17.05
2023-01-25T18:31:02.850Z,30.20
2023-01-25T18:33:36.583Z,18.50
2023-01-25T18:36:11.751Z,17.63
2023-01-25T18:38:45.432Z,16.02
2023-01-25T18:41:20.260Z,16.25
2023-01-25T18:43:53.964Z,16.88
2023-01-25T18:46:27.923Z,19.67
2023-01-25T18:49:01.667Z,20.17
2023-01-25T18:51:48.637Z,13.57
2023-01-25T18:54:29.134Z,18.75
2023-01-25T18:57:04.429Z,17.20
2023-01-25T18:59:38.361Z,21.52
2023-01-25T19:04:46.786Z,17.08
2023-01-25T19:07:20.509Z,17.48
2023-01-25T19:12:29.631Z,16.58
2023-01-25T19:15:03.287Z,15.38
2023-01-25T19:20:12.294Z,19.75
2023-01-25T19:22:48.533Z,18.77
2023-01-25T19:25:23.729Z,19.52
2023-01-25T19:27:59.372Z,23.45
2023-01-25T19:30:33.284Z,21.55
2023-01-25T19:33:07.876Z,20.17
2023-01-25T19:35:41.654Z,20.48
2023-01-25T19:40:49.295Z,21.38
2023-01-25T19:43:24.052Z,19.63
2023-01-25T19:46:09.191Z,22.50
2023-01-25T19:48:45.227Z,18.67
2023-01-25T19:51:21.196Z,21.05
2023-01-25T19:53:59.503Z,17.30
2023-01-25T19:56:35.982Z,20.38
2023-01-25T19:59:13.918Z,17.15
2023-01-25T20:01:48.327Z,17.77
2023-01-25T20:04:25.331Z,18.58
2023-01-25T20:06:59.183Z,20.05
2023-01-25T20:09:32.988Z,19.63
2023-01-25T20:12:08.488Z,17.08
2023-01-25T20:14:44.383Z,15.63
2023-01-25T20:17:20.359Z,16.13
2023-01-25T20:19:53.971Z,16.70
2023-01-25T20:22:27.196Z,16.63
2023-01-25T20:25:01.226Z,18.85
2023-01-25T20:27:35.010Z,17.92
2023-01-25T20:30:11.894Z,14.45
2023-01-25T20:32:45.158Z,14.80
2023-01-25T20:35:18.371Z,15.15
2023-01-25T20:37:52.136Z,17.50
2023-01-25T20:42:58.457Z,14.38
2023-01-25T20:45:34.915Z,11.38
2023-01-25T20:48:08.263Z,19.98
2023-01-25T20:50:41.450Z,19.27
2023-01-25T20:53:14.974Z,15.00
2023-01-25T20:55:55.603Z,14.55
2023-01-25T20:58:29.721Z,15.90
2023-01-25T21:03:37.917Z,14.52
2023-01-25T21:06:12.248Z,17.17
2023-01-25T21:08:45.698Z,17.15
2023-01-25T21:11:18.991Z,10.18
2023-01-25T21:16:29.192Z,11.50
2023-01-25T21:19:06.487Z,17.05
2023-01-25T21:21:40.950Z,10.90
2023-01-25T21:24:14.114Z,18.55
2023-01-25T21:26:47.316Z,17.63
2023-01-25T21:29:21.222Z,18.52
2023-01-25T21:37:04.446Z,16.35
2023-01-25T21:39:37.679Z,15.32
2023-01-25T21:42:11.465Z,16.70
2023-01-25T21:45:02.403Z,16.67
2023-01-25T21:47:37.067Z,12.77
2023-01-25T21:50:29.543Z,13.25
2023-01-25T21:53:02.913Z,15.23
2023-01-25T21:58:09.738Z,11.55
2023-01-25T22:00:43.133Z,15.43
2023-01-25T22:08:29.933Z,18.75
2023-01-25T22:11:03.824Z,21.98
2023-01-25T22:13:38.269Z,19.67
2023-01-25T22:16:13.343Z,21.70
2023-01-25T22:18:48.974Z,18.52
2023-01-25T22:21:23.398Z,19.98
2023-01-25T22:23:56.652Z,16.55
2023-01-25T22:26:34.169Z,13.75
2023-01-25T22:29:07.447Z,13.10
2023-01-25T22:31:41.416Z,16.83
2023-01-25T22:34:17.113Z,16.85
2023-01-25T22:36:50.238Z,17.25
2023-01-25T22:39:23.471Z,17.40
2023-01-25T22:41:56.946Z,12.35
2023-01-25T22:44:30.389Z,11.95
2023-01-25T22:47:04.000Z,20.80
2023-01-25T22:49:38.875Z,13.65
2023-01-25T22:52:11.976Z,17.00
2023-01-25T22:54:45.938Z,17.15
2023-01-25T22:57:19.602Z,16.25
2023-01-25T22:59:52.828Z,20.25
2023-01-25T23:02:26.287Z,20.85
2023-01-25T23:05:01.207Z,13.45
2023-01-25T23:07:34.429Z,21.05
2023-01-25T23:10:08.642Z,13.88
2023-01-25T23:12:50.003Z,18.10
2023-01-25T23:15:24.383Z,16.15
2023-01-25T23:20:50.112Z,12.45
2023-01-25T23:23:23.848Z,18.58
2023-01-25T23:25:58.164Z,14.90
2023-01-25T23:28:32.041Z,19.65
2023-01-25T23:33:52.802Z,15.30
2023-01-25T23:36:29.497Z,15.68
2023-01-25T23:39:03.113Z,15.90
2023-01-25T23:41:36.232Z,12.07
2023-01-25T23:44:10.233Z,17.13
2023-01-25T23:46:43.595Z,13.20
2023-01-25T23:49:17.446Z,18.80
2023-01-25T23:57:00.312Z,16.58
2023-01-25T23:59:34.991Z,15.68
